Acton, TX

9:37 PM CDT on September 02, 2014 (GMT -0500)
Mallard Pointe | Change Station
CLOSE
Current Station
Personal Weather Station
Location: Granbury, TX
Elevation: 784 ft
Nearby Weather Stations

Elev 784 ft 32.46 °N, 97.75 °W | Updated 1 minute ago

Clear
Clear
87.3 °F
Feels Like 93 °F
N
3.7
Wind Variable Wind from SE

Today
High -- | Low -- °F
--% Chance of Precip.
Yesterday
High -- | Low -- °F
Precip. -- in
7:06 AM 7:54 PM
First Quarter, 57% visible
Pressure 29.91 in
Visibility 10.0 miles
Clouds Clear
Heat Index 93 °F
Dew Point 71 °F
Humidity 58%
Rainfall 0.00 in
Snow Depth Not available.
UV 0 out of 12
Pollen 11.00 out of 12
Ozone Good
PM2.5 Good
Flu Activity Not available.
METAR KGDJ 030215Z AUTO 15010G14KT 10SM CLR 32/20 A2991 RMK AO2 T03230201

More Conditions Fewer Conditions

Pressure 29.91 in
Visibility 10.0 miles
Clouds Clear
Heat Index 93 °F
Dew Point 71 °F
Humidity 58%
Rainfall 0.00 in
Snow Depth Not available.
UV 0 out of 12
Pollen 11.00 out of 12
Ozone Good
PM2.5 Good
Flu Activity Not available.
METAR KGDJ 030215Z AUTO 15010G14KT 10SM CLR 32/20 A2991 RMK AO2 T03230201

More Conditions Fewer Conditions

10-Day Weather Forecast

Almanac

Astronomy

Sep. 02, 2014 Rise Set
Actual Time 7:06 AM CDT 7:54 PM CDT
Civil Twilight 6:41 AM CDT 8:19 PM CDT
Nautical Twilight 6:12 AM CDT 8:48 PM CDT
Astronomical Twilight 5:41 AM CDT 9:18 PM CDT
Moon 2:28 PM CDT (9/2) 12:20 AM CDT (9/2)
Length of Visible Light 13h 37m
Length of Day
12h 47m
Tomorrow will be 1m 55s shorter.
First Quarter, 57% of the Moon is Illuminated
Today
First Quarter
Sep 8
Full
Sep 15
Last Quarter
Sep 24
New
Oct 1
First Quarter

Today's Extremes

State Highs State Lows

Community

WunderPhotos

Upload Photos

1,749,845 photos uploaded!

Nearby

Air Quality

  Air Quality AQ Index Pollutant
Yesterday Good
PM2.5
Yesterday Good
OZONE
Current Good
PM2.5
Current Good
OZONE
Tuesday Good
OZONE
Tuesday Good
PM10
Wednesday Good
OZONE
Wednesday Good
PM10
Thursday Good
OZONE
Thursday Good
PM10
Friday Good
OZONE
Friday Good
PM10

Snow Depth

Station Depth Elevation
No new snow has been reported.

Earthquake Activity

City Distance Mag. Time & Date
No recent earthquake activity has been reported nearby.
Minimum magnitude displayed is 2.5.

Coastal Water Temperatures

Place Temperature
No Stations Reporting

Nearby Weather Stations